Huntertown, Indiana
Current Conditions -  °F | °C
As of 8:15 PM on Sunday 23 Nov 2014 (Local Time) from KGWB Reporting Station
Heavy Rain Heavy Rain  
Wind Chill: 50°   Ceiling: 2300
Heat Index: 50°   Visibility: 4mi
Dew Point: 46°   Wind: 7mph
Humidity: 87%   Direction: 110°ESE
Pressure: 29.4"   Gusts: NA
Location:  41.23°N, 85.17°W
Report Text: KGWB 240115Z AUTO 11006KT 4SM +RA OVC023 10/08 A2940 RMK AO2 P0008
Loading
Personal Weather Stations






























Interactive Weather Map New forecast layout! Learn more

10-Day Weather Forecast

Advertisements
Track Severe Weather on mobile